sensor_id;sensor_type;location;lat;lon;timestamp;P1;durP1;ratioP1;P2;durP2;ratioP2
24084;SDS011;12268;52.110;5.548;2023-06-24T00:00:36;23.60;;;15.90;;
24084;SDS011;12268;52.110;5.548;2023-06-24T00:03:02;21.35;;;15.75;;
24084;SDS011;12268;52.110;5.548;2023-06-24T00:05:27;24.02;;;15.07;;
24084;SDS011;12268;52.110;5.548;2023-06-24T00:07:53;22.92;;;15.70;;
24084;SDS011;12268;52.110;5.548;2023-06-24T00:10:22;21.80;;;15.05;;
24084;SDS011;12268;52.110;5.548;2023-06-24T00:12:47;19.92;;;14.63;;
24084;SDS011;12268;52.110;5.548;2023-06-24T00:15:13;23.30;;;15.52;;
24084;SDS011;12268;52.110;5.548;2023-06-24T00:17:39;22.50;;;15.98;;
24084;SDS011;12268;52.110;5.548;2023-06-24T00:20:05;23.45;;;15.43;;
24084;SDS011;12268;52.110;5.548;2023-06-24T00:22:34;21.73;;;15.45;;
24084;SDS011;12268;52.110;5.548;2023-06-24T00:24:59;24.23;;;15.50;;
24084;SDS011;12268;52.110;5.548;2023-06-24T00:27:25;22.38;;;16.00;;
24084;SDS011;12268;52.110;5.548;2023-06-24T00:29:51;25.00;;;16.00;;
24084;SDS011;12268;52.110;5.548;2023-06-24T00:32:16;23.23;;;15.63;;
24084;SDS011;12268;52.110;5.548;2023-06-24T00:34:42;24.25;;;15.68;;
24084;SDS011;12268;52.110;5.548;2023-06-24T00:37:08;21.10;;;15.48;;
24084;SDS011;12268;52.110;5.548;2023-06-24T00:39:34;20.05;;;15.35;;
24084;SDS011;12268;52.110;5.548;2023-06-24T00:42:00;22.67;;;15.20;;
24084;SDS011;12268;52.110;5.548;2023-06-24T00:44:25;21.80;;;16.45;;
24084;SDS011;12268;52.110;5.548;2023-06-24T00:46:51;27.67;;;16.58;;
24084;SDS011;12268;52.110;5.548;2023-06-24T00:49:17;27.38;;;16.80;;
24084;SDS011;12268;52.110;5.548;2023-06-24T00:51:42;29.40;;;17.05;;
24084;SDS011;12268;52.110;5.548;2023-06-24T00:54:12;24.60;;;16.15;;
24084;SDS011;12268;52.110;5.548;2023-06-24T00:56:38;29.40;;;16.17;;
24084;SDS011;12268;52.110;5.548;2023-06-24T00:59:03;24.85;;;17.23;;
24084;SDS011;12268;52.110;5.548;2023-06-24T01:01:32;27.05;;;15.20;;
24084;SDS011;12268;52.110;5.548;2023-06-24T01:03:58;21.70;;;15.77;;
24084;SDS011;12268;52.110;5.548;2023-06-24T01:06:24;22.75;;;16.90;;
24084;SDS011;12268;52.110;5.548;2023-06-24T01:08:54;22.85;;;17.00;;
24084;SDS011;12268;52.110;5.548;2023-06-24T01:11:24;25.95;;;17.98;;
24084;SDS011;12268;52.110;5.548;2023-06-24T01:13:51;29.58;;;18.10;;
24084;SDS011;12268;52.110;5.548;2023-06-24T01:16:29;25.23;;;16.58;;
24084;SDS011;12268;52.110;5.548;2023-06-24T01:24:31;24.45;;;17.40;;
24084;SDS011;12268;52.110;5.548;2023-06-24T01:35:39;25.98;;;17.13;;
24084;SDS011;12268;52.110;5.548;2023-06-24T01:38:08;23.98;;;17.17;;
24084;SDS011;12268;52.110;5.548;2023-06-24T01:40:43;24.00;;;17.67;;
24084;SDS011;12268;52.110;5.548;2023-06-24T01:43:10;28.75;;;18.83;;
24084;SDS011;12268;52.110;5.548;2023-06-24T01:45:51;26.45;;;18.02;;
24084;SDS011;12268;52.110;5.548;2023-06-24T01:48:22;24.85;;;18.00;;
24084;SDS011;12268;52.110;5.548;2023-06-24T01:53:44;24.33;;;18.10;;
24084;SDS011;12268;52.110;5.548;2023-06-24T01:56:18;25.88;;;17.70;;
24084;SDS011;12268;52.110;5.548;2023-06-24T01:58:46;28.27;;;18.10;;
24084;SDS011;12268;52.110;5.548;2023-06-24T02:01:15;23.40;;;17.60;;
24084;SDS011;12268;52.110;5.548;2023-06-24T02:03:42;24.73;;;16.88;;
24084;SDS011;12268;52.110;5.548;2023-06-24T02:06:08;24.33;;;16.77;;
24084;SDS011;12268;52.110;5.548;2023-06-24T02:08:35;26.13;;;17.50;;
24084;SDS011;12268;52.110;5.548;2023-06-24T02:11:04;20.40;;;15.05;;
24084;SDS011;12268;52.110;5.548;2023-06-24T02:13:31;22.05;;;14.45;;
24084;SDS011;12268;52.110;5.548;2023-06-24T02:16:00;24.02;;;14.95;;
24084;SDS011;12268;52.110;5.548;2023-06-24T02:18:28;21.38;;;15.23;;
24084;SDS011;12268;52.110;5.548;2023-06-24T02:20:53;22.15;;;15.77;;
24084;SDS011;12268;52.110;5.548;2023-06-24T02:23:21;21.90;;;15.82;;
24084;SDS011;12268;52.110;5.548;2023-06-24T02:25:48;20.70;;;15.70;;
24084;SDS011;12268;52.110;5.548;2023-06-24T02:28:14;24.27;;;15.43;;
24084;SDS011;12268;52.110;5.548;2023-06-24T02:30:41;26.33;;;17.95;;
24084;SDS011;12268;52.110;5.548;2023-06-24T02:33:08;25.05;;;17.38;;
24084;SDS011;12268;52.110;5.548;2023-06-24T02:35:36;23.98;;;17.77;;
24084;SDS011;12268;52.110;5.548;2023-06-24T02:38:02;28.10;;;18.58;;
24084;SDS011;12268;52.110;5.548;2023-06-24T02:40:28;25.73;;;18.10;;
24084;SDS011;12268;52.110;5.548;2023-06-24T02:42:54;26.30;;;16.98;;
24084;SDS011;12268;52.110;5.548;2023-06-24T02:45:20;22.90;;;16.95;;
24084;SDS011;12268;52.110;5.548;2023-06-24T02:47:46;23.35;;;18.00;;
24084;SDS011;12268;52.110;5.548;2023-06-24T02:50:12;26.42;;;18.63;;
24084;SDS011;12268;52.110;5.548;2023-06-24T02:52:39;26.27;;;17.92;;
24084;SDS011;12268;52.110;5.548;2023-06-24T02:55:05;25.17;;;18.13;;
24084;SDS011;12268;52.110;5.548;2023-06-24T02:57:33;29.85;;;18.42;;
24084;SDS011;12268;52.110;5.548;2023-06-24T03:00:01;28.52;;;18.63;;
24084;SDS011;12268;52.110;5.548;2023-06-24T03:02:30;25.83;;;17.08;;
24084;SDS011;12268;52.110;5.548;2023-06-24T03:04:56;23.65;;;16.70;;
24084;SDS011;12268;52.110;5.548;2023-06-24T03:07:23;23.42;;;16.33;;
24084;SDS011;12268;52.110;5.548;2023-06-24T03:09:49;25.08;;;15.85;;
24084;SDS011;12268;52.110;5.548;2023-06-24T03:12:16;25.80;;;18.08;;
24084;SDS011;12268;52.110;5.548;2023-06-24T03:14:42;26.25;;;18.35;;
24084;SDS011;12268;52.110;5.548;2023-06-24T03:17:07;27.08;;;18.45;;
24084;SDS011;12268;52.110;5.548;2023-06-24T03:19:33;27.90;;;17.88;;
24084;SDS011;12268;52.110;5.548;2023-06-24T03:21:59;26.73;;;18.02;;
24084;SDS011;12268;52.110;5.548;2023-06-24T03:24:24;31.55;;;20.88;;
24084;SDS011;12268;52.110;5.548;2023-06-24T03:26:50;32.50;;;18.83;;
24084;SDS011;12268;52.110;5.548;2023-06-24T03:29:21;28.95;;;18.55;;
24084;SDS011;12268;52.110;5.548;2023-06-24T03:31:47;29.17;;;19.52;;
24084;SDS011;12268;52.110;5.548;2023-06-24T03:34:13;28.88;;;18.25;;
24084;SDS011;12268;52.110;5.548;2023-06-24T03:36:39;24.20;;;16.98;;
24084;SDS011;12268;52.110;5.548;2023-06-24T03:39:04;26.20;;;17.70;;
24084;SDS011;12268;52.110;5.548;2023-06-24T03:41:30;23.98;;;16.92;;
24084;SDS011;12268;52.110;5.548;2023-06-24T03:43:56;24.20;;;16.40;;
24084;SDS011;12268;52.110;5.548;2023-06-24T03:46:21;30.23;;;17.30;;
24084;SDS011;12268;52.110;5.548;2023-06-24T03:48:47;33.10;;;18.63;;
24084;SDS011;12268;52.110;5.548;2023-06-24T03:51:12;31.00;;;19.27;;
24084;SDS011;12268;52.110;5.548;2023-06-24T03:53:38;29.38;;;19.23;;
24084;SDS011;12268;52.110;5.548;2023-06-24T03:56:04;26.67;;;17.92;;
24084;SDS011;12268;52.110;5.548;2023-06-24T03:58:29;24.70;;;16.95;;
24084;SDS011;12268;52.110;5.548;2023-06-24T04:00:55;26.73;;;17.73;;
24084;SDS011;12268;52.110;5.548;2023-06-24T04:03:23;29.73;;;18.25;;
24084;SDS011;12268;52.110;5.548;2023-06-24T04:05:50;25.90;;;17.35;;
24084;SDS011;12268;52.110;5.548;2023-06-24T04:08:18;26.85;;;18.00;;
24084;SDS011;12268;52.110;5.548;2023-06-24T04:10:43;28.50;;;17.85;;
24084;SDS011;12268;52.110;5.548;2023-06-24T04:13:09;25.92;;;17.33;;
24084;SDS011;12268;52.110;5.548;2023-06-24T04:15:35;27.70;;;17.40;;
24084;SDS011;12268;52.110;5.548;2023-06-24T04:18:00;27.80;;;18.63;;
24084;SDS011;12268;52.110;5.548;2023-06-24T04:20:26;27.77;;;17.73;;
24084;SDS011;12268;52.110;5.548;2023-06-24T04:22:51;28.30;;;19.58;;
24084;SDS011;12268;52.110;5.548;2023-06-24T04:25:17;31.25;;;20.35;;
24084;SDS011;12268;52.110;5.548;2023-06-24T04:27:42;33.70;;;19.58;;
24084;SDS011;12268;52.110;5.548;2023-06-24T04:30:08;27.17;;;19.35;;
24084;SDS011;12268;52.110;5.548;2023-06-24T04:32:34;33.70;;;18.88;;
24084;SDS011;12268;52.110;5.548;2023-06-24T04:34:59;30.17;;;19.17;;
24084;SDS011;12268;52.110;5.548;2023-06-24T04:37:25;28.35;;;17.85;;
24084;SDS011;12268;52.110;5.548;2023-06-24T04:39:51;23.48;;;16.25;;
24084;SDS011;12268;52.110;5.548;2023-06-24T04:42:17;26.05;;;16.30;;
24084;SDS011;12268;52.110;5.548;2023-06-24T04:44:42;23.00;;;15.23;;
24084;SDS011;12268;52.110;5.548;2023-06-24T04:47:08;23.98;;;14.70;;
24084;SDS011;12268;52.110;5.548;2023-06-24T04:49:34;21.67;;;13.35;;
24084;SDS011;12268;52.110;5.548;2023-06-24T04:52:00;18.85;;;12.73;;
24084;SDS011;12268;52.110;5.548;2023-06-24T04:54:26;21.73;;;11.38;;
24084;SDS011;12268;52.110;5.548;2023-06-24T04:56:52;18.80;;;11.05;;
24084;SDS011;12268;52.110;5.548;2023-06-24T04:59:20;19.00;;;11.57;;
24084;SDS011;12268;52.110;5.548;2023-06-24T05:01:46;20.02;;;12.00;;
24084;SDS011;12268;52.110;5.548;2023-06-24T05:04:11;22.00;;;12.98;;
24084;SDS011;12268;52.110;5.548;2023-06-24T05:06:37;16.08;;;11.50;;
24084;SDS011;12268;52.110;5.548;2023-06-24T05:09:02;18.08;;;12.27;;
24084;SDS011;12268;52.110;5.548;2023-06-24T05:11:28;19.65;;;12.32;;
24084;SDS011;12268;52.110;5.548;2023-06-24T05:13:53;20.77;;;12.57;;
24084;SDS011;12268;52.110;5.548;2023-06-24T05:16:19;15.85;;;11.38;;
24084;SDS011;12268;52.110;5.548;2023-06-24T05:18:45;16.58;;;10.57;;
24084;SDS011;12268;52.110;5.548;2023-06-24T05:21:10;17.60;;;11.30;;
24084;SDS011;12268;52.110;5.548;2023-06-24T05:23:36;17.92;;;11.75;;
24084;SDS011;12268;52.110;5.548;2023-06-24T05:26:01;15.70;;;10.45;;
24084;SDS011;12268;52.110;5.548;2023-06-24T05:28:27;15.25;;;10.30;;
24084;SDS011;12268;52.110;5.548;2023-06-24T05:30:53;15.57;;;11.13;;
24084;SDS011;12268;52.110;5.548;2023-06-24T05:33:18;14.65;;;9.60;;
24084;SDS011;12268;52.110;5.548;2023-06-24T05:35:44;16.00;;;9.23;;
24084;SDS011;12268;52.110;5.548;2023-06-24T05:38:09;16.60;;;10.05;;
24084;SDS011;12268;52.110;5.548;2023-06-24T05:40:35;17.60;;;9.75;;
24084;SDS011;12268;52.110;5.548;2023-06-24T05:43:00;18.23;;;9.90;;
24084;SDS011;12268;52.110;5.548;2023-06-24T05:45:28;17.63;;;10.02;;
24084;SDS011;12268;52.110;5.548;2023-06-24T05:47:53;13.85;;;9.13;;
24084;SDS011;12268;52.110;5.548;2023-06-24T05:50:19;16.27;;;9.60;;
24084;SDS011;12268;52.110;5.548;2023-06-24T05:52:44;13.52;;;9.02;;
24084;SDS011;12268;52.110;5.548;2023-06-24T05:55:10;14.75;;;8.50;;
24084;SDS011;12268;52.110;5.548;2023-06-24T05:57:38;13.57;;;9.40;;
24084;SDS011;12268;52.110;5.548;2023-06-24T06:00:04;14.88;;;9.23;;
24084;SDS011;12268;52.110;5.548;2023-06-24T06:02:30;13.52;;;8.55;;
24084;SDS011;12268;52.110;5.548;2023-06-24T06:04:56;16.42;;;9.20;;
24084;SDS011;12268;52.110;5.548;2023-06-24T06:07:21;11.25;;;7.93;;
24084;SDS011;12268;52.110;5.548;2023-06-24T06:09:47;14.55;;;8.35;;
24084;SDS011;12268;52.110;5.548;2023-06-24T06:12:12;13.50;;;8.77;;
24084;SDS011;12268;52.110;5.548;2023-06-24T06:14:38;15.15;;;8.43;;
24084;SDS011;12268;52.110;5.548;2023-06-24T06:17:04;11.40;;;8.18;;
24084;SDS011;12268;52.110;5.548;2023-06-24T06:19:29;15.60;;;8.63;;
24084;SDS011;12268;52.110;5.548;2023-06-24T06:21:55;12.98;;;8.27;;
24084;SDS011;12268;52.110;5.548;2023-06-24T06:24:20;12.70;;;8.35;;
24084;SDS011;12268;52.110;5.548;2023-06-24T06:26:46;11.90;;;8.55;;
24084;SDS011;12268;52.110;5.548;2023-06-24T06:29:11;14.27;;;8.43;;
24084;SDS011;12268;52.110;5.548;2023-06-24T06:31:37;13.38;;;8.13;;
24084;SDS011;12268;52.110;5.548;2023-06-24T06:34:03;12.80;;;8.50;;
24084;SDS011;12268;52.110;5.548;2023-06-24T06:36:28;16.73;;;8.52;;
24084;SDS011;12268;52.110;5.548;2023-06-24T06:38:54;12.82;;;8.23;;
24084;SDS011;12268;52.110;5.548;2023-06-24T06:41:20;12.65;;;8.40;;
24084;SDS011;12268;52.110;5.548;2023-06-24T06:46:17;12.40;;;8.65;;
24084;SDS011;12268;52.110;5.548;2023-06-24T06:48:43;12.43;;;7.78;;
24084;SDS011;12268;52.110;5.548;2023-06-24T06:51:08;13.70;;;7.93;;
24084;SDS011;12268;52.110;5.548;2023-06-24T06:53:34;11.60;;;8.23;;
24084;SDS011;12268;52.110;5.548;2023-06-24T06:55:59;14.40;;;8.45;;
24084;SDS011;12268;52.110;5.548;2023-06-24T06:58:25;16.05;;;8.40;;
24084;SDS011;12268;52.110;5.548;2023-06-24T07:00:50;15.32;;;7.65;;
24084;SDS011;12268;52.110;5.548;2023-06-24T07:03:16;12.07;;;7.80;;
24084;SDS011;12268;52.110;5.548;2023-06-24T07:05:41;10.80;;;7.40;;
24084;SDS011;12268;52.110;5.548;2023-06-24T07:08:07;9.68;;;6.95;;
24084;SDS011;12268;52.110;5.548;2023-06-24T07:10:33;11.05;;;7.32;;
24084;SDS011;12268;52.110;5.548;2023-06-24T07:12:58;9.57;;;6.80;;
24084;SDS011;12268;52.110;5.548;2023-06-24T07:15:27;10.93;;;7.05;;
24084;SDS011;12268;52.110;5.548;2023-06-24T07:17:53;10.02;;;6.13;;
24084;SDS011;12268;52.110;5.548;2023-06-24T07:20:19;11.32;;;7.00;;
24084;SDS011;12268;52.110;5.548;2023-06-24T07:22:46;10.80;;;6.53;;
24084;SDS011;12268;52.110;5.548;2023-06-24T07:25:11;9.63;;;5.90;;
24084;SDS011;12268;52.110;5.548;2023-06-24T07:27:37;7.40;;;5.50;;
24084;SDS011;12268;52.110;5.548;2023-06-24T07:30:04;10.48;;;5.63;;
24084;SDS011;12268;52.110;5.548;2023-06-24T07:32:30;11.10;;;6.13;;
24084;SDS011;12268;52.110;5.548;2023-06-24T07:34:55;11.75;;;6.32;;
24084;SDS011;12268;52.110;5.548;2023-06-24T07:37:21;8.18;;;5.70;;
24084;SDS011;12268;52.110;5.548;2023-06-24T07:39:47;11.73;;;5.70;;
24084;SDS011;12268;52.110;5.548;2023-06-24T07:42:13;11.10;;;6.35;;
24084;SDS011;12268;52.110;5.548;2023-06-24T07:44:43;7.68;;;5.40;;
24084;SDS011;12268;52.110;5.548;2023-06-24T07:47:12;8.18;;;5.38;;
24084;SDS011;12268;52.110;5.548;2023-06-24T07:49:37;9.68;;;5.65;;
24084;SDS011;12268;52.110;5.548;2023-06-24T07:52:03;7.93;;;5.25;;
24084;SDS011;12268;52.110;5.548;2023-06-24T07:54:29;6.80;;;5.03;;
24084;SDS011;12268;52.110;5.548;2023-06-24T07:56:55;7.55;;;4.75;;
24084;SDS011;12268;52.110;5.548;2023-06-24T07:59:21;6.22;;;3.65;;
24084;SDS011;12268;52.110;5.548;2023-06-24T08:01:46;6.65;;;3.92;;
24084;SDS011;12268;52.110;5.548;2023-06-24T08:04:12;6.55;;;4.05;;
24084;SDS011;12268;52.110;5.548;2023-06-24T08:06:38;7.40;;;4.03;;
24084;SDS011;12268;52.110;5.548;2023-06-24T08:09:04;5.68;;;4.18;;
24084;SDS011;12268;52.110;5.548;2023-06-24T08:11:29;6.30;;;4.32;;
24084;SDS011;12268;52.110;5.548;2023-06-24T08:13:55;8.52;;;4.55;;
24084;SDS011;12268;52.110;5.548;2023-06-24T08:16:20;9.25;;;4.68;;
24084;SDS011;12268;52.110;5.548;2023-06-24T08:18:46;9.73;;;4.90;;
24084;SDS011;12268;52.110;5.548;2023-06-24T08:21:12;10.52;;;5.03;;
24084;SDS011;12268;52.110;5.548;2023-06-24T08:23:37;6.85;;;4.70;;
24084;SDS011;12268;52.110;5.548;2023-06-24T08:26:03;8.88;;;4.70;;
24084;SDS011;12268;52.110;5.548;2023-06-24T08:28:28;5.45;;;3.75;;
24084;SDS011;12268;52.110;5.548;2023-06-24T08:30:54;5.88;;;4.13;;
24084;SDS011;12268;52.110;5.548;2023-06-24T08:33:19;12.25;;;4.53;;
24084;SDS011;12268;52.110;5.548;2023-06-24T08:35:45;9.48;;;3.30;;
24084;SDS011;12268;52.110;5.548;2023-06-24T08:38:10;5.65;;;4.05;;
24084;SDS011;12268;52.110;5.548;2023-06-24T08:40:36;8.13;;;4.90;;
24084;SDS011;12268;52.110;5.548;2023-06-24T08:43:05;11.60;;;4.68;;
24084;SDS011;12268;52.110;5.548;2023-06-24T08:45:31;8.65;;;4.30;;
24084;SDS011;12268;52.110;5.548;2023-06-24T08:47:57;8.85;;;4.40;;
24084;SDS011;12268;52.110;5.548;2023-06-24T08:50:27;9.05;;;4.38;;
24084;SDS011;12268;52.110;5.548;2023-06-24T08:52:56;9.00;;;4.72;;
24084;SDS011;12268;52.110;5.548;2023-06-24T08:55:23;6.95;;;5.05;;
24084;SDS011;12268;52.110;5.548;2023-06-24T08:57:52;9.68;;;5.03;;
24084;SDS011;12268;52.110;5.548;2023-06-24T09:00:18;9.80;;;5.28;;
24084;SDS011;12268;52.110;5.548;2023-06-24T09:02:44;8.40;;;5.35;;
24084;SDS011;12268;52.110;5.548;2023-06-24T09:05:10;8.45;;;6.03;;
24084;SDS011;12268;52.110;5.548;2023-06-24T09:07:36;8.98;;;5.88;;
24084;SDS011;12268;52.110;5.548;2023-06-24T09:10:02;8.82;;;5.57;;
24084;SDS011;12268;52.110;5.548;2023-06-24T09:12:28;7.78;;;5.30;;
24084;SDS011;12268;52.110;5.548;2023-06-24T09:14:57;7.10;;;5.47;;
24084;SDS011;12268;52.110;5.548;2023-06-24T09:17:23;6.75;;;4.70;;
24084;SDS011;12268;52.110;5.548;2023-06-24T09:19:49;8.63;;;6.38;;
24084;SDS011;12268;52.110;5.548;2023-06-24T09:22:16;10.98;;;6.22;;
24084;SDS011;12268;52.110;5.548;2023-06-24T09:24:45;13.02;;;6.03;;
24084;SDS011;12268;52.110;5.548;2023-06-24T09:27:12;8.70;;;6.35;;
24084;SDS011;12268;52.110;5.548;2023-06-24T09:29:39;7.68;;;5.70;;
24084;SDS011;12268;52.110;5.548;2023-06-24T09:32:06;8.20;;;6.00;;
24084;SDS011;12268;52.110;5.548;2023-06-24T09:34:32;8.20;;;6.45;;
24084;SDS011;12268;52.110;5.548;2023-06-24T09:36:58;8.50;;;5.85;;
24084;SDS011;12268;52.110;5.548;2023-06-24T09:39:25;9.20;;;6.20;;
24084;SDS011;12268;52.110;5.548;2023-06-24T09:41:53;9.32;;;6.80;;
24084;SDS011;12268;52.110;5.548;2023-06-24T09:44:19;9.20;;;6.47;;
24084;SDS011;12268;52.110;5.548;2023-06-24T09:46:45;12.45;;;6.55;;
24084;SDS011;12268;52.110;5.548;2023-06-24T09:49:10;9.23;;;6.78;;
24084;SDS011;12268;52.110;5.548;2023-06-24T09:51:37;9.82;;;6.85;;
24084;SDS011;12268;52.110;5.548;2023-06-24T09:54:07;10.50;;;7.32;;
24084;SDS011;12268;52.110;5.548;2023-06-24T09:56:35;11.18;;;7.78;;
24084;SDS011;12268;52.110;5.548;2023-06-24T09:59:04;10.70;;;7.30;;
24084;SDS011;12268;52.110;5.548;2023-06-24T10:01:31;12.70;;;7.43;;
24084;SDS011;12268;52.110;5.548;2023-06-24T10:03:59;10.93;;;7.43;;
24084;SDS011;12268;52.110;5.548;2023-06-24T10:06:26;9.95;;;7.82;;
24084;SDS011;12268;52.110;5.548;2023-06-24T10:08:53;10.07;;;8.02;;
24084;SDS011;12268;52.110;5.548;2023-06-24T10:11:19;12.82;;;8.75;;
24084;SDS011;12268;52.110;5.548;2023-06-24T10:13:44;12.40;;;9.00;;
24084;SDS011;12268;52.110;5.548;2023-06-24T10:16:10;13.45;;;8.65;;
24084;SDS011;12268;52.110;5.548;2023-06-24T10:18:37;10.80;;;8.43;;
24084;SDS011;12268;52.110;5.548;2023-06-24T10:21:04;13.35;;;8.75;;
24084;SDS011;12268;52.110;5.548;2023-06-24T10:23:52;15.18;;;8.23;;
24084;SDS011;12268;52.110;5.548;2023-06-24T10:39:42;10.63;;;7.75;;
24084;SDS011;12268;52.110;5.548;2023-06-24T10:44:52;10.32;;;7.93;;
24084;SDS011;12268;52.110;5.548;2023-06-24T10:47:18;9.68;;;7.07;;
24084;SDS011;12268;52.110;5.548;2023-06-24T10:49:44;9.38;;;6.05;;
24084;SDS011;12268;52.110;5.548;2023-06-24T10:52:10;7.68;;;6.30;;
24084;SDS011;12268;52.110;5.548;2023-06-24T11:04:59;9.95;;;7.43;;
24084;SDS011;12268;52.110;5.548;2023-06-24T11:07:26;8.25;;;7.07;;
24084;SDS011;12268;52.110;5.548;2023-06-24T11:09:56;9.07;;;7.05;;
24084;SDS011;12268;52.110;5.548;2023-06-24T11:12:42;12.88;;;8.27;;
24084;SDS011;12268;52.110;5.548;2023-06-24T11:15:12;9.20;;;7.13;;
24084;SDS011;12268;52.110;5.548;2023-06-24T11:17:39;9.77;;;7.35;;
24084;SDS011;12268;52.110;5.548;2023-06-24T11:20:12;8.70;;;7.05;;
24084;SDS011;12268;52.110;5.548;2023-06-24T11:22:42;8.85;;;7.72;;
24084;SDS011;12268;52.110;5.548;2023-06-24T13:34:37;14.20;;;8.30;;
24084;SDS011;12268;52.110;5.548;2023-06-24T13:37:03;15.50;;;9.45;;
24084;SDS011;12268;52.110;5.548;2023-06-24T13:39:28;10.50;;;8.18;;
24084;SDS011;12268;52.110;5.548;2023-06-24T13:41:55;10.75;;;7.70;;
24084;SDS011;12268;52.110;5.548;2023-06-24T13:44:21;11.40;;;7.10;;
24084;SDS011;12268;52.110;5.548;2023-06-24T13:46:48;9.30;;;7.07;;
24084;SDS011;12268;52.110;5.548;2023-06-24T13:49:15;8.90;;;7.25;;
24084;SDS011;12268;52.110;5.548;2023-06-24T13:51:41;9.32;;;6.60;;
24084;SDS011;12268;52.110;5.548;2023-06-24T13:54:07;11.57;;;7.28;;
24084;SDS011;12268;52.110;5.548;2023-06-24T17:05:06;16.42;;;10.32;;
24084;SDS011;12268;52.110;5.548;2023-06-24T17:07:31;16.75;;;9.98;;
24084;SDS011;12268;52.110;5.548;2023-06-24T17:09:57;15.35;;;10.45;;
24084;SDS011;12268;52.110;5.548;2023-06-24T17:12:22;20.52;;;11.45;;
24084;SDS011;12268;52.110;5.548;2023-06-24T17:14:48;16.00;;;10.65;;
24084;SDS011;12268;52.110;5.548;2023-06-24T17:17:13;20.85;;;11.20;;
24084;SDS011;12268;52.110;5.548;2023-06-24T17:19:39;16.65;;;11.43;;
24084;SDS011;12268;52.110;5.548;2023-06-24T17:22:05;19.17;;;11.18;;
24084;SDS011;12268;52.110;5.548;2023-06-24T17:24:30;17.30;;;11.05;;
24084;SDS011;12268;52.110;5.548;2023-06-24T19:36:24;12.02;;;7.88;;
24084;SDS011;12268;52.110;5.548;2023-06-24T19:38:49;15.13;;;8.23;;
24084;SDS011;12268;52.110;5.548;2023-06-24T19:41:15;13.30;;;8.50;;
24084;SDS011;12268;52.110;5.548;2023-06-24T19:43:45;13.18;;;8.57;;
24084;SDS011;12268;52.110;5.548;2023-06-24T19:46:12;12.13;;;8.27;;
24084;SDS011;12268;52.110;5.548;2023-06-24T19:48:38;12.65;;;9.25;;
24084;SDS011;12268;52.110;5.548;2023-06-24T19:51:04;14.68;;;8.65;;
24084;SDS011;12268;52.110;5.548;2023-06-24T19:53:29;13.55;;;9.30;;
24084;SDS011;12268;52.110;5.548;2023-06-24T22:05:23;20.65;;;13.90;;
24084;SDS011;12268;52.110;5.548;2023-06-24T22:07:48;19.67;;;14.45;;
24084;SDS011;12268;52.110;5.548;2023-06-24T22:10:14;19.40;;;13.80;;
24084;SDS011;12268;52.110;5.548;2023-06-24T22:12:39;21.90;;;15.30;;
24084;SDS011;12268;52.110;5.548;2023-06-24T22:15:05;25.65;;;15.65;;
24084;SDS011;12268;52.110;5.548;2023-06-24T22:17:31;19.00;;;14.18;;
24084;SDS011;12268;52.110;5.548;2023-06-24T22:19:56;23.60;;;15.35;;
24084;SDS011;12268;52.110;5.548;2023-06-24T22:22:22;23.52;;;14.45;;
24084;SDS011;12268;52.110;5.548;2023-06-24T22:24:48;21.90;;;15.32;;
24084;SDS011;12268;52.110;5.548;2023-06-24T22:27:14;20.40;;;14.05;;
24084;SDS011;12268;52.110;5.548;2023-06-24T22:29:40;21.08;;;14.75;;
24084;SDS011;12268;52.110;5.548;2023-06-24T22:32:05;21.25;;;15.60;;
24084;SDS011;12268;52.110;5.548;2023-06-24T22:34:31;20.33;;;15.18;;
24084;SDS011;12268;52.110;5.548;2023-06-24T22:36:56;22.88;;;16.35;;
24084;SDS011;12268;52.110;5.548;2023-06-24T22:39:22;25.42;;;16.10;;
24084;SDS011;12268;52.110;5.548;2023-06-24T22:41:47;23.45;;;16.25;;
24084;SDS011;12268;52.110;5.548;2023-06-24T22:44:13;25.30;;;16.67;;
24084;SDS011;12268;52.110;5.548;2023-06-24T22:46:38;27.83;;;17.33;;
24084;SDS011;12268;52.110;5.548;2023-06-24T22:49:04;27.60;;;17.58;;
24084;SDS011;12268;52.110;5.548;2023-06-24T22:51:29;25.13;;;16.88;;
24084;SDS011;12268;52.110;5.548;2023-06-24T22:53:56;26.92;;;17.55;;
24084;SDS011;12268;52.110;5.548;2023-06-24T22:56:22;22.00;;;16.70;;
24084;SDS011;12268;52.110;5.548;2023-06-24T22:58:47;26.08;;;16.35;;
24084;SDS011;12268;52.110;5.548;2023-06-24T23:01:13;22.95;;;16.00;;
24084;SDS011;12268;52.110;5.548;2023-06-24T23:03:38;20.98;;;15.75;;
24084;SDS011;12268;52.110;5.548;2023-06-24T23:06:04;22.73;;;16.95;;
24084;SDS011;12268;52.110;5.548;2023-06-24T23:08:30;24.63;;;17.77;;
24084;SDS011;12268;52.110;5.548;2023-06-24T23:10:56;27.73;;;17.05;;
24084;SDS011;12268;52.110;5.548;2023-06-24T23:13:21;25.15;;;16.85;;
24084;SDS011;12268;52.110;5.548;2023-06-24T23:15:47;31.35;;;19.52;;
24084;SDS011;12268;52.110;5.548;2023-06-24T23:18:13;30.60;;;18.33;;
24084;SDS011;12268;52.110;5.548;2023-06-24T23:20:39;29.60;;;19.83;;
24084;SDS011;12268;52.110;5.548;2023-06-24T23:23:06;26.75;;;17.92;;
24084;SDS011;12268;52.110;5.548;2023-06-24T23:25:41;32.85;;;19.42;;
24084;SDS011;12268;52.110;5.548;2023-06-24T23:28:07;32.58;;;21.30;;
24084;SDS011;12268;52.110;5.548;2023-06-24T23:30:42;29.60;;;19.20;;
24084;SDS011;12268;52.110;5.548;2023-06-24T23:33:12;29.27;;;19.92;;
24084;SDS011;12268;52.110;5.548;2023-06-24T23:35:48;25.77;;;17.90;;
24084;SDS011;12268;52.110;5.548;2023-06-24T23:38:16;31.83;;;18.88;;
24084;SDS011;12268;52.110;5.548;2023-06-24T23:40:43;30.38;;;20.42;;
24084;SDS011;12268;52.110;5.548;2023-06-24T23:43:09;30.77;;;19.40;;
24084;SDS011;12268;52.110;5.548;2023-06-24T23:45:35;29.40;;;19.58;;
24084;SDS011;12268;52.110;5.548;2023-06-24T23:48:00;28.75;;;19.80;;
24084;SDS011;12268;52.110;5.548;2023-06-24T23:50:26;28.23;;;19.65;;
24084;SDS011;12268;52.110;5.548;2023-06-24T23:52:53;33.53;;;21.20;;
24084;SDS011;12268;52.110;5.548;2023-06-24T23:55:18;33.63;;;21.42;;
24084;SDS011;12268;52.110;5.548;2023-06-24T23:57:44;32.65;;;20.92;;
